createdAt,value
2022-09-28T00:00:07.215Z,97656.22
2022-09-28T00:01:15.094Z,97652.28
2022-09-28T00:02:16.500Z,97657.84
2022-09-28T00:03:17.945Z,97652.44
2022-09-28T00:04:19.325Z,97644.75
2022-09-28T00:05:20.647Z,97639.31
2022-09-28T00:06:22.936Z,97646.22
2022-09-28T00:07:24.279Z,97642.75
2022-09-28T00:08:25.623Z,97642.28
2022-09-28T00:09:26.979Z,97645.88
2022-09-28T00:10:28.295Z,97644.06
2022-09-28T00:11:29.923Z,97647.47
2022-09-28T00:12:31.251Z,97637.00
2022-09-28T00:13:33.040Z,97647.47
2022-09-28T00:14:34.361Z,97646.34
2022-09-28T00:15:35.740Z,97643.19
2022-09-28T00:16:41.188Z,97640.06
2022-09-28T00:17:42.558Z,97643.16
2022-09-28T00:18:44.231Z,97647.25
2022-09-28T00:19:45.585Z,97646.75
2022-09-28T00:20:46.895Z,97636.59
2022-09-28T00:21:48.222Z,97641.00
2022-09-28T00:22:49.569Z,97633.78
2022-09-28T00:23:51.952Z,97640.47
2022-09-28T00:24:53.304Z,97637.88
2022-09-28T00:25:54.641Z,97640.28
2022-09-28T00:26:56.572Z,97639.16
2022-09-28T00:27:58.077Z,97633.78
2022-09-28T00:29:00.387Z,97639.34
2022-09-28T00:30:01.757Z,97639.88
2022-09-28T00:31:03.669Z,97631.34
2022-09-28T00:32:06.401Z,97631.22
2022-09-28T00:33:07.744Z,97623.34
2022-09-28T00:34:09.123Z,97622.38
2022-09-28T00:35:10.464Z,97616.63
2022-09-28T00:36:11.808Z,97624.84
2022-09-28T00:37:13.589Z,97622.44
2022-09-28T00:38:14.910Z,97620.00
2022-09-28T00:39:16.787Z,97616.38
2022-09-28T00:40:18.281Z,97623.59
2022-09-28T00:41:19.677Z,97625.75
2022-09-28T00:42:23.240Z,97622.81
2022-09-28T00:43:24.880Z,97624.94
2022-09-28T00:44:26.215Z,97621.50
2022-09-28T00:45:27.616Z,97622.81
2022-09-28T00:46:32.724Z,97616.75
2022-09-28T00:47:37.156Z,97626.06
2022-09-28T00:48:40.207Z,97633.91
2022-09-28T00:49:41.526Z,97631.47
2022-09-28T00:50:42.926Z,97628.19
2022-09-28T00:51:44.751Z,97631.13
2022-09-28T00:52:49.618Z,97629.00
2022-09-28T00:53:51.483Z,97628.66
2022-09-28T00:54:53.399Z,97631.56
2022-09-28T00:55:56.953Z,97630.94
2022-09-28T00:56:58.967Z,97625.72
2022-09-28T00:58:02.766Z,97622.75
2022-09-28T00:59:04.457Z,97629.09
2022-09-28T01:00:06.301Z,97624.84
2022-09-28T01:01:07.788Z,97622.06
2022-09-28T01:02:10.079Z,97625.81
2022-09-28T01:03:12.187Z,97628.41
2022-09-28T01:04:13.680Z,97626.81
2022-09-28T01:05:15.064Z,97620.03
2022-09-28T01:06:20.507Z,97621.84
2022-09-28T01:07:22.544Z,97634.59
2022-09-28T01:08:24.524Z,97629.81
2022-09-28T01:09:27.255Z,97624.75
2022-09-28T01:10:29.900Z,97620.78
2022-09-28T01:11:32.170Z,97622.41
2022-09-28T01:12:33.715Z,97618.44
2022-09-28T01:13:35.323Z,97617.13
2022-09-28T01:14:37.365Z,97616.00
2022-09-28T01:15:59.010Z,97621.69
2022-09-28T01:17:12.160Z,97616.78
2022-09-28T01:18:27.829Z,97613.78
2022-09-28T01:19:47.728Z,97612.66
2022-09-28T01:20:49.633Z,97611.34
2022-09-28T01:21:59.517Z,97622.47
2022-09-28T01:23:19.363Z,97617.25
2022-09-28T01:24:20.743Z,97624.31
2022-09-28T01:25:22.055Z,97616.59
2022-09-28T01:26:33.193Z,97620.22
2022-09-28T01:27:51.892Z,97616.47
2022-09-28T01:28:57.824Z,97618.63
2022-09-28T01:30:04.794Z,97619.13
2022-09-28T01:31:09.594Z,97620.91
2022-09-28T01:32:23.068Z,97626.53
2022-09-28T01:33:28.062Z,97629.63
2022-09-28T01:34:37.456Z,97636.03
2022-09-28T01:35:41.641Z,97631.63
2022-09-28T01:36:46.253Z,97632.81
2022-09-28T01:37:53.384Z,97628.84
2022-09-28T01:39:05.701Z,97630.50
2022-09-28T01:40:08.562Z,97637.22
2022-09-28T01:41:10.215Z,97634.44
2022-09-28T01:42:18.674Z,97635.09
2022-09-28T01:43:22.611Z,97634.63
2022-09-28T01:44:25.347Z,97636.13
2022-09-28T01:45:31.372Z,97644.44
2022-09-28T01:46:35.948Z,97637.56
2022-09-28T01:47:39.847Z,97638.38
2022-09-28T01:48:50.276Z,97643.09
2022-09-28T01:50:00.840Z,97637.34
2022-09-28T01:51:05.232Z,97637.63
2022-09-28T01:52:24.631Z,97637.47
2022-09-28T01:53:32.052Z,97642.34
2022-09-28T01:54:43.796Z,97639.63
2022-09-28T01:55:47.913Z,97644.34
2022-09-28T01:57:17.585Z,97638.47
2022-09-28T01:58:23.011Z,97632.25
2022-09-28T01:59:28.566Z,97633.22
2022-09-28T02:00:32.440Z,97630.59
2022-09-28T02:01:39.876Z,97631.84
2022-09-28T02:02:47.615Z,97632.63
2022-09-28T02:03:55.591Z,97634.81
2022-09-28T02:05:00.836Z,97631.22
2022-09-28T02:06:05.724Z,97632.50
2022-09-28T02:07:10.856Z,97628.59
2022-09-28T02:08:27.400Z,97630.91
2022-09-28T02:09:35.093Z,97631.06
2022-09-28T02:10:42.395Z,97628.97
2022-09-28T02:11:47.332Z,97628.50
2022-09-28T02:12:51.210Z,97630.34
2022-09-28T02:13:56.010Z,97629.03
2022-09-28T02:15:03.802Z,97627.09
2022-09-28T02:16:05.258Z,97626.44
2022-09-28T02:17:07.178Z,97625.16
2022-09-28T02:18:09.286Z,97628.44
2022-09-28T02:19:19.548Z,97622.44
2022-09-28T02:20:23.123Z,97622.66
2022-09-28T02:21:47.735Z,97622.00
2022-09-28T02:22:55.583Z,97628.59
2022-09-28T02:24:21.349Z,97632.25
2022-09-28T02:25:28.336Z,97625.06
2022-09-28T02:26:34.681Z,97632.91
2022-09-28T02:27:39.158Z,97631.09
2022-09-28T02:28:40.693Z,97631.59
2022-09-28T02:29:42.261Z,97629.97
2022-09-28T02:30:45.831Z,97630.31
2022-09-28T02:31:48.969Z,97635.06
2022-09-28T02:32:52.700Z,97627.56
2022-09-28T02:33:55.200Z,97636.88
2022-09-28T02:34:56.852Z,97631.34
2022-09-28T02:35:59.782Z,97641.50
2022-09-28T02:37:02.699Z,97631.66
2022-09-28T02:38:04.196Z,97634.78
2022-09-28T02:39:05.547Z,97631.03
2022-09-28T02:40:28.669Z,97637.41
2022-09-28T02:41:39.679Z,97638.06
2022-09-28T02:42:48.850Z,97635.28
2022-09-28T02:43:50.578Z,97630.69
2022-09-28T02:44:57.794Z,97624.31
2022-09-28T02:46:17.705Z,97637.25
2022-09-28T02:47:22.991Z,97627.41
2022-09-28T02:48:45.665Z,97633.66
2022-09-28T02:49:57.069Z,97641.69
2022-09-28T02:51:09.073Z,97641.03
2022-09-28T02:52:13.235Z,97641.19
2022-09-28T02:53:17.421Z,97641.34
2022-09-28T02:54:21.840Z,97638.06
2022-09-28T02:55:38.473Z,97638.22
2022-09-28T02:56:46.192Z,97635.13
2022-09-28T02:57:50.549Z,97638.91
2022-09-28T02:59:04.236Z,97635.47
2022-09-28T03:00:07.649Z,97640.88
2022-09-28T03:01:24.831Z,97643.66
2022-09-28T03:02:28.890Z,97642.47
2022-09-28T03:03:56.759Z,97643.97
2022-09-28T03:05:10.773Z,97648.06
2022-09-28T03:06:27.435Z,97641.53
2022-09-28T03:07:32.264Z,97643.81
2022-09-28T03:08:37.061Z,97644.63
2022-09-28T03:09:47.229Z,97646.75
2022-09-28T03:10:53.901Z,97645.47
2022-09-28T03:12:00.703Z,97646.13
2022-09-28T03:13:03.620Z,97644.66
2022-09-28T03:14:05.709Z,97639.41
2022-09-28T03:15:19.401Z,97642.03
2022-09-28T03:16:20.839Z,97642.03
2022-09-28T03:17:23.891Z,97634.97
2022-09-28T03:18:25.236Z,97647.78
2022-09-28T03:19:31.582Z,97652.88
2022-09-28T03:20:34.628Z,97644.81
2022-09-28T03:21:36.592Z,97643.50
2022-09-28T03:22:38.739Z,97642.53
2022-09-28T03:23:40.591Z,97637.13
2022-09-28T03:24:41.950Z,97638.75
2022-09-28T03:25:43.435Z,97639.41
2022-09-28T03:26:44.818Z,97640.22
2022-09-28T03:27:47.347Z,97640.06
2022-09-28T03:28:49.812Z,97633.34
2022-09-28T03:29:56.771Z,97635.47
2022-09-28T03:30:58.120Z,97631.38
2022-09-28T03:31:59.681Z,97631.53
2022-09-28T03:33:01.059Z,97631.69
2022-09-28T03:34:04.743Z,97633.16
2022-09-28T03:35:07.482Z,97645.47
2022-09-28T03:36:08.863Z,97647.94
2022-09-28T03:37:11.005Z,97648.72
2022-09-28T03:38:12.383Z,97647.13
2022-09-28T03:39:13.774Z,97648.09
2022-09-28T03:40:15.306Z,97654.97
2022-09-28T03:41:16.690Z,97662.69
2022-09-28T03:42:18.300Z,97659.19
2022-09-28T03:43:23.773Z,97652.97
2022-09-28T03:44:26.599Z,97658.72
2022-09-28T03:45:28.022Z,97649.03
2022-09-28T03:46:29.677Z,97655.94
2022-09-28T03:47:35.852Z,97652.81
2022-09-28T03:48:37.225Z,97649.03
2022-09-28T03:49:38.633Z,97641.69
2022-09-28T03:50:40.047Z,97648.06
2022-09-28T03:51:43.979Z,97648.22
2022-09-28T03:52:45.339Z,97642.47
2022-09-28T03:53:46.700Z,97643.94
2022-09-28T03:54:49.418Z,97640.16
2022-09-28T03:55:51.619Z,97639.00
2022-09-28T03:56:53.203Z,97636.81
2022-09-28T03:57:55.030Z,97642.81
2022-09-28T03:58:56.395Z,97639.50
2022-09-28T03:59:57.745Z,97647.97
2022-09-28T04:01:02.993Z,97643.38
2022-09-28T04:02:05.092Z,97642.84
2022-09-28T04:03:06.766Z,97642.53
2022-09-28T04:04:10.756Z,97646.09
2022-09-28T04:05:12.130Z,97645.72
2022-09-28T04:06:13.596Z,97646.81
2022-09-28T04:07:15.057Z,97644.34
2022-09-28T04:08:16.999Z,97648.41
2022-09-28T04:09:19.830Z,97644.47
2022-09-28T04:10:21.183Z,97649.53
2022-09-28T04:11:22.562Z,97647.59
2022-09-28T04:12:23.910Z,97643.19
2022-09-28T04:13:25.858Z,97643.19
2022-09-28T04:14:27.219Z,97646.16
2022-09-28T04:15:28.886Z,97644.78
2022-09-28T04:16:30.283Z,97647.41
2022-09-28T04:17:43.122Z,97649.84
2022-09-28T04:18:55.641Z,97648.22
2022-09-28T04:20:14.953Z,97649.94
2022-09-28T04:21:31.865Z,97651.25
2022-09-28T04:22:39.064Z,97648.78
2022-09-28T04:23:40.728Z,97645.47
2022-09-28T04:24:42.065Z,97646.75
2022-09-28T04:25:43.420Z,97644.59
2022-09-28T04:26:44.769Z,97646.91
2022-09-28T04:27:46.957Z,97648.56
2022-09-28T04:28:48.654Z,97643.56
2022-09-28T04:29:50.533Z,97642.38
2022-09-28T04:30:52.744Z,97642.69
2022-09-28T04:31:54.454Z,97644.63
2022-09-28T04:33:01.707Z,97646.63
2022-09-28T04:34:04.950Z,97633.84
2022-09-28T04:35:07.123Z,97638.19
2022-09-28T04:36:08.706Z,97642.81
2022-09-28T04:37:10.450Z,97637.25
2022-09-28T04:38:13.114Z,97638.22
2022-09-28T04:39:15.829Z,97636.59
2022-09-28T04:40:20.690Z,97635.78
2022-09-28T04:41:22.858Z,97636.75
2022-09-28T04:42:24.735Z,97638.84
2022-09-28T04:43:26.665Z,97638.91
2022-09-28T04:44:28.285Z,97642.38
2022-09-28T04:45:34.122Z,97634.22
2022-09-28T04:46:41.494Z,97631.78
2022-09-28T04:48:01.361Z,97641.25
2022-09-28T04:49:22.920Z,97634.75
2022-09-28T04:50:27.575Z,97634.44
2022-09-28T04:51:55.231Z,97635.72
2022-09-28T04:52:56.607Z,97631.00
2022-09-28T04:53:58.065Z,97636.75
2022-09-28T04:54:59.979Z,97639.66
2022-09-28T04:56:02.997Z,97636.91
2022-09-28T04:57:04.522Z,97638.09
2022-09-28T04:58:05.912Z,97642.22
2022-09-28T04:59:07.408Z,97647.38
2022-09-28T05:00:10.960Z,97637.88
2022-09-28T05:01:17.867Z,97641.63
2022-09-28T05:02:42.248Z,97639.44
2022-09-28T05:04:02.238Z,97643.34
2022-09-28T05:05:32.865Z,97642.47
2022-09-28T05:06:51.270Z,97645.88
2022-09-28T05:07:52.639Z,97655.69
2022-09-28T05:08:53.980Z,97646.06
2022-09-28T05:09:55.518Z,97650.09
2022-09-28T05:11:00.752Z,97655.16
2022-09-28T05:12:02.111Z,97655.69
2022-09-28T05:13:04.393Z,97651.78
2022-09-28T05:14:05.758Z,97655.25
2022-09-28T05:15:07.291Z,97651.50
2022-09-28T05:16:09.203Z,97665.25
2022-09-28T05:17:24.072Z,97663.97
2022-09-28T05:18:40.778Z,97661.19
2022-09-28T05:19:42.473Z,97668.84
2022-09-28T05:20:43.790Z,97664.06
2022-09-28T05:21:45.687Z,97659.97
2022-09-28T05:22:47.165Z,97662.44
2022-09-28T05:23:48.587Z,97668.91
2022-09-28T05:24:50.053Z,97666.13
2022-09-28T05:25:51.403Z,97665.97
2022-09-28T05:26:59.527Z,97667.78
2022-09-28T05:28:01.090Z,97666.44
2022-09-28T05:29:14.743Z,97667.56
2022-09-28T05:30:35.467Z,97668.06
2022-09-28T05:31:57.118Z,97666.59
2022-09-28T05:33:09.848Z,97666.91
2022-09-28T05:34:22.252Z,97671.69
2022-09-28T05:35:23.644Z,97660.72
2022-09-28T05:36:25.090Z,97662.22
2022-09-28T05:37:26.479Z,97665.84
2022-09-28T05:38:28.052Z,97660.88
2022-09-28T05:39:29.396Z,97667.31
2022-09-28T05:40:31.386Z,97658.94
2022-09-28T05:41:32.783Z,97658.47
2022-09-28T05:42:34.917Z,97653.19
2022-09-28T05:43:36.334Z,97649.41
2022-09-28T05:44:39.182Z,97656.47
2022-09-28T05:45:40.852Z,97652.00
2022-09-28T05:46:42.262Z,97652.00
2022-09-28T05:47:45.040Z,97645.91
2022-09-28T05:48:48.801Z,97649.09
2022-09-28T05:49:50.189Z,97651.81
2022-09-28T05:50:52.111Z,97653.78
2022-09-28T05:51:53.536Z,97659.00
2022-09-28T05:52:59.271Z,97664.31
2022-09-28T05:54:05.446Z,97660.06
2022-09-28T05:55:08.140Z,97656.75
2022-09-28T05:56:09.774Z,97663.66
2022-09-28T05:57:14.975Z,97659.69
2022-09-28T05:58:16.870Z,97658.34
2022-09-28T05:59:18.216Z,97657.53
2022-09-28T06:00:19.637Z,97655.69
2022-09-28T06:01:27.456Z,97653.69
2022-09-28T06:02:31.152Z,97652.03
2022-09-28T06:03:34.201Z,97653.44
2022-09-28T06:04:35.690Z,97644.66
2022-09-28T06:05:38.172Z,97643.78
2022-09-28T06:06:39.579Z,97649.88
2022-09-28T06:07:40.965Z,97650.03
2022-09-28T06:08:42.551Z,97647.25
2022-09-28T06:10:07.689Z,97646.69
2022-09-28T06:11:15.628Z,97640.34
2022-09-28T06:12:16.979Z,97642.91
2022-09-28T06:13:21.864Z,97649.13
2022-09-28T06:14:23.284Z,97641.38
2022-09-28T06:15:25.897Z,97644.88
2022-09-28T06:16:27.279Z,97639.44
2022-09-28T06:17:28.701Z,97642.00
2022-09-28T06:18:49.985Z,97639.84
2022-09-28T06:20:17.562Z,97649.03
2022-09-28T06:21:41.562Z,97643.75
2022-09-28T06:22:43.106Z,97644.13
2022-09-28T06:23:48.805Z,97643.75
2022-09-28T06:24:50.915Z,97649.53
2022-09-28T06:25:52.297Z,97654.34
2022-09-28T06:26:53.648Z,97652.88
2022-09-28T06:27:58.404Z,97652.59
2022-09-28T06:28:59.889Z,97652.31
2022-09-28T06:30:01.367Z,97645.72
2022-09-28T06:31:03.448Z,97638.88
2022-09-28T06:32:05.708Z,97639.03
2022-09-28T06:33:08.161Z,97642.34
2022-09-28T06:34:11.254Z,97635.25
2022-09-28T06:35:12.694Z,97639.53
2022-09-28T06:36:14.070Z,97634.63
2022-09-28T06:37:15.455Z,97637.25
2022-09-28T06:38:16.832Z,97632.97
2022-09-28T06:39:18.167Z,97639.22
2022-09-28T06:40:20.551Z,97632.34
2022-09-28T06:41:21.958Z,97642.50
2022-09-28T06:42:23.302Z,97642.84
2022-09-28T06:43:53.719Z,97638.22
2022-09-28T06:45:13.566Z,97639.38
2022-09-28T06:46:25.496Z,97637.41
2022-09-28T06:47:45.439Z,97645.47
2022-09-28T06:48:59.115Z,97646.91
2022-09-28T06:50:42.142Z,97638.38
2022-09-28T06:52:03.589Z,97642.50
2022-09-28T06:53:23.398Z,97643.97
2022-09-28T06:54:29.979Z,97646.25
2022-09-28T06:55:40.192Z,97643.81
2022-09-28T06:56:41.578Z,97644.31
2022-09-28T06:57:42.964Z,97646.09
2022-09-28T06:58:44.429Z,97643.47
2022-09-28T06:59:46.385Z,97640.16
2022-09-28T07:00:49.736Z,97642.78
2022-09-28T07:01:51.124Z,97648.97
2022-09-28T07:03:12.596Z,97651.25
2022-09-28T07:04:28.557Z,97651.38
2022-09-28T07:06:10.078Z,97652.44
2022-09-28T07:07:34.086Z,97654.38
2022-09-28T07:08:43.176Z,97651.16
2022-09-28T07:10:03.079Z,97650.31
2022-09-28T07:11:28.463Z,97647.84
2022-09-28T07:12:45.436Z,97649.25
2022-09-28T07:13:57.811Z,97640.28
2022-09-28T07:14:59.157Z,97643.00
2022-09-28T07:16:02.772Z,97645.13
2022-09-28T07:17:14.150Z,97645.66
2022-09-28T07:18:17.398Z,97639.06
2022-09-28T07:19:18.766Z,97638.66
2022-09-28T07:20:20.223Z,97634.59
2022-09-28T07:21:29.764Z,97638.72
2022-09-28T07:22:42.147Z,97633.25
2022-09-28T07:23:53.543Z,97636.03
2022-09-28T07:24:58.176Z,97630.78
2022-09-28T07:26:21.533Z,97624.53
2022-09-28T07:27:38.088Z,97631.28
2022-09-28T07:29:03.154Z,97627.56
2022-09-28T07:30:09.174Z,97626.56
2022-09-28T07:31:29.000Z,97631.34
2022-09-28T07:33:03.254Z,97626.94
2022-09-28T07:34:13.346Z,97626.97
2022-09-28T07:35:34.954Z,97623.66
2022-09-28T07:36:36.989Z,97627.06
2022-09-28T07:37:38.368Z,97630.13
2022-09-28T07:38:39.739Z,97628.13
2022-09-28T07:39:41.312Z,97621.19
2022-09-28T07:40:47.502Z,97621.41
2022-09-28T07:41:49.793Z,97620.63
2022-09-28T07:42:51.174Z,97620.38
2022-09-28T07:43:52.874Z,97618.31
2022-09-28T07:44:54.347Z,97616.75
2022-09-28T07:45:56.493Z,97617.97
2022-09-28T07:46:58.322Z,97609.53
2022-09-28T07:48:15.369Z,97612.34
2022-09-28T07:49:32.059Z,97605.22
2022-09-28T07:51:09.865Z,97604.94
2022-09-28T07:52:16.191Z,97596.00
2022-09-28T07:53:36.234Z,97605.44
2022-09-28T07:54:56.335Z,97597.56
2022-09-28T07:56:36.136Z,97597.03
2022-09-28T07:58:00.283Z,97594.41
2022-09-28T07:59:21.895Z,97602.00
2022-09-28T08:00:41.780Z,97594.91
2022-09-28T08:01:43.260Z,97592.09
2022-09-28T08:02:48.052Z,97601.06
2022-09-28T08:03:56.440Z,97600.69
2022-09-28T08:04:57.963Z,97597.03
2022-09-28T08:05:59.962Z,97602.75
2022-09-28T08:07:01.384Z,97609.78
2022-09-28T08:08:03.224Z,97609.66
2022-09-28T08:09:04.588Z,97611.84
2022-09-28T08:10:25.011Z,97606.09
2022-09-28T08:11:52.350Z,97603.72
2022-09-28T08:13:12.511Z,97611.47
2022-09-28T08:14:25.902Z,97607.25
2022-09-28T08:15:43.843Z,97603.53
2022-09-28T08:16:53.353Z,97602.41
2022-09-28T08:18:18.536Z,97600.59
2022-09-28T08:19:20.561Z,97603.19
2022-09-28T08:20:22.956Z,97598.16
2022-09-28T08:21:24.328Z,97602.66
2022-09-28T08:22:25.844Z,97609.16
2022-09-28T08:23:30.249Z,97607.47
2022-09-28T08:24:31.633Z,97601.88
2022-09-28T08:25:33.292Z,97605.78
2022-09-28T08:26:38.086Z,97605.47
2022-09-28T08:27:39.511Z,97603.09
2022-09-28T08:28:40.919Z,97608.19
2022-09-28T08:30:02.203Z,97603.34
2022-09-28T08:31:35.506Z,97609.75
2022-09-28T08:32:47.872Z,97610.81
2022-09-28T08:34:07.849Z,97614.91
2022-09-28T08:35:27.065Z,97616.13
2022-09-28T08:36:48.678Z,97602.91
2022-09-28T08:38:08.876Z,97606.63
2022-09-28T08:39:45.007Z,97596.22
2022-09-28T08:41:24.436Z,97600.03
2022-09-28T08:42:44.148Z,97595.53
2022-09-28T08:44:05.177Z,97599.41
2022-09-28T08:45:25.931Z,97588.44
2022-09-28T08:46:51.952Z,97595.25
2022-09-28T08:48:27.456Z,97588.09
2022-09-28T08:50:00.772Z,97587.72
2022-09-28T08:51:12.760Z,97586.50
2022-09-28T08:52:48.398Z,97587.53
2022-09-28T08:54:11.918Z,97581.63
2022-09-28T08:55:24.131Z,97588.97
2022-09-28T08:56:29.301Z,97588.16
2022-09-28T08:57:33.811Z,97591.19
2022-09-28T08:58:41.060Z,97592.00
2022-09-28T08:59:48.133Z,97581.19
2022-09-28T09:00:54.338Z,97587.75
2022-09-28T09:02:00.907Z,97590.19
2022-09-28T09:03:05.071Z,97591.19
2022-09-28T09:04:09.350Z,97587.94
2022-09-28T09:05:39.952Z,97593.03
2022-09-28T09:06:59.952Z,97585.72
2022-09-28T09:08:21.390Z,97585.91
2022-09-28T09:09:42.330Z,97590.00
2022-09-28T09:10:49.387Z,97592.44
2022-09-28T09:12:03.255Z,97590.59
2022-09-28T09:13:10.534Z,97575.53
2022-09-28T09:14:20.852Z,97581.00
2022-09-28T09:15:34.717Z,97574.28
2022-09-28T09:17:00.344Z,97579.56
2022-09-28T09:18:30.735Z,97572.06
2022-09-28T09:19:46.376Z,97569.22
2022-09-28T09:21:23.268Z,97575.91
2022-09-28T09:22:39.348Z,97577.75
2022-09-28T09:23:51.845Z,97578.22
2022-09-28T09:25:08.537Z,97571.03
2022-09-28T09:26:23.639Z,97584.28
2022-09-28T09:27:30.159Z,97566.19
2022-09-28T09:28:37.371Z,97584.28
2022-09-28T09:29:38.768Z,97582.06
2022-09-28T09:31:03.174Z,97575.38
2022-09-28T09:32:25.932Z,97578.25
2022-09-28T09:33:36.671Z,97582.13
2022-09-28T09:35:16.919Z,97584.13
2022-09-28T09:36:44.342Z,97583.94
2022-09-28T09:38:16.302Z,97571.13
2022-09-28T09:39:45.707Z,97583.63
2022-09-28T09:41:31.516Z,97576.84
2022-09-28T09:43:12.644Z,97573.84
2022-09-28T09:44:49.265Z,97573.91
2022-09-28T09:46:15.112Z,97575.31
2022-09-28T09:47:45.392Z,97565.53
2022-09-28T09:48:59.557Z,97567.34
2022-09-28T09:50:10.074Z,97566.94
2022-09-28T09:51:19.869Z,97563.63
2022-09-28T09:52:26.912Z,97563.06
2022-09-28T09:53:37.622Z,97564.09
2022-09-28T09:54:50.670Z,97558.81
2022-09-28T09:56:17.428Z,97553.28
2022-09-28T09:57:42.771Z,97563.47
2022-09-28T09:59:31.505Z,97555.09
2022-09-28T10:00:39.079Z,97548.59
2022-09-28T10:01:51.776Z,97545.72
2022-09-28T10:02:58.451Z,97548.16
2022-09-28T10:04:17.774Z,97545.50
2022-09-28T10:05:24.105Z,97553.03
2022-09-28T10:06:30.681Z,97542.66
2022-09-28T10:07:46.849Z,97545.91
2022-09-28T10:08:49.211Z,97537.19
2022-09-28T10:09:55.640Z,97541.06
2022-09-28T10:11:11.739Z,97544.13
2022-09-28T10:12:18.822Z,97544.91
2022-09-28T10:13:20.377Z,97545.34
2022-09-28T10:14:23.317Z,97535.59
2022-09-28T10:15:34.900Z,97534.34
2022-09-28T10:16:47.701Z,97539.84
2022-09-28T10:18:10.892Z,97539.22
2022-09-28T10:19:32.400Z,97533.25
2022-09-28T10:20:53.981Z,97536.69
2022-09-28T10:22:06.165Z,97535.63
2022-09-28T10:23:19.353Z,97533.59
2022-09-28T10:24:25.598Z,97528.66
2022-09-28T10:25:26.979Z,97528.06
2022-09-28T10:26:32.387Z,97536.88
2022-09-28T10:27:34.806Z,97531.16
2022-09-28T10:28:47.997Z,97534.59
2022-09-28T10:29:52.270Z,97530.97
2022-09-28T10:30:53.801Z,97537.28
2022-09-28T10:31:55.332Z,97536.09
2022-09-28T10:33:03.140Z,97538.53
2022-09-28T10:34:10.706Z,97529.97
2022-09-28T10:35:18.321Z,97536.94
2022-09-28T10:36:22.470Z,97534.91
2022-09-28T10:37:23.885Z,97528.38
2022-09-28T10:38:38.284Z,97532.88
2022-09-28T10:39:42.683Z,97534.28
2022-09-28T10:40:51.824Z,97524.50
2022-09-28T10:42:01.653Z,97523.44
2022-09-28T10:43:05.745Z,97511.03
2022-09-28T10:44:16.390Z,97509.63
2022-09-28T10:45:33.495Z,97514.38
2022-09-28T10:46:35.636Z,97516.00
2022-09-28T10:47:37.514Z,97505.38
2022-09-28T10:48:52.239Z,97508.66
2022-09-28T10:49:55.964Z,97496.59
2022-09-28T10:51:02.633Z,97494.81
2022-09-28T10:52:04.031Z,97496.81
2022-09-28T10:53:12.254Z,97495.00
2022-09-28T10:54:32.459Z,97506.25
2022-09-28T10:55:34.991Z,97501.34
2022-09-28T10:56:37.387Z,97498.25
2022-09-28T10:57:42.732Z,97496.03
2022-09-28T10:58:45.210Z,97491.53
2022-09-28T10:59:52.970Z,97499.84
2022-09-28T11:01:15.350Z,97498.22
2022-09-28T11:02:25.931Z,97495.81
2022-09-28T11:03:31.603Z,97489.72
2022-09-28T11:04:40.480Z,97492.38
2022-09-28T11:05:42.981Z,97491.16
2022-09-28T11:06:44.384Z,97489.13
2022-09-28T11:07:47.553Z,97494.81
2022-09-28T11:08:54.483Z,97493.81
2022-09-28T11:09:56.009Z,97497.69
2022-09-28T11:11:11.218Z,97488.72
2022-09-28T11:12:18.320Z,97489.75
2022-09-28T11:13:19.710Z,97485.47
2022-09-28T11:14:32.581Z,97481.81
2022-09-28T11:15:34.105Z,97498.31
2022-09-28T11:16:39.310Z,97484.63
2022-09-28T11:17:40.731Z,97483.75
2022-09-28T11:18:43.452Z,97486.97
2022-09-28T11:19:45.364Z,97481.47
2022-09-28T11:20:46.725Z,97484.50
2022-09-28T11:21:48.088Z,97480.59
2022-09-28T11:22:53.370Z,97482.25
2022-09-28T11:23:57.163Z,97467.06
2022-09-28T11:25:34.128Z,97469.06
2022-09-28T11:26:40.592Z,97469.66
2022-09-28T11:27:54.891Z,97463.06
2022-09-28T11:28:56.275Z,97465.72
2022-09-28T11:30:22.530Z,97465.22
2022-09-28T11:31:38.778Z,97465.59
2022-09-28T11:32:44.640Z,97463.28
2022-09-28T11:34:03.691Z,97466.19
2022-09-28T11:35:20.488Z,97463.63
2022-09-28T11:36:31.029Z,97464.66
2022-09-28T11:37:47.012Z,97464.03
2022-09-28T11:38:59.156Z,97462.56
2022-09-28T11:40:40.096Z,97453.75
2022-09-28T11:41:47.451Z,97456.50
2022-09-28T11:42:48.804Z,97458.22
2022-09-28T11:44:05.299Z,97452.97
2022-09-28T11:45:06.720Z,97455.94
2022-09-28T11:46:15.699Z,97446.72
2022-09-28T11:47:37.865Z,97447.25
2022-09-28T11:48:45.825Z,97446.66
2022-09-28T11:49:49.813Z,97449.16
2022-09-28T11:50:58.369Z,97442.00
2022-09-28T11:52:03.029Z,97444.06
2022-09-28T11:53:18.299Z,97440.81
2022-09-28T11:54:32.569Z,97441.78
2022-09-28T11:55:38.473Z,97442.81
2022-09-28T11:56:41.536Z,97447.06
2022-09-28T11:57:46.360Z,97443.00
2022-09-28T11:58:53.160Z,97446.56
2022-09-28T12:00:07.475Z,97448.38
2022-09-28T12:01:27.302Z,97444.72
2022-09-28T12:02:57.861Z,97442.00
2022-09-28T12:04:03.961Z,97441.09
2022-09-28T12:05:08.165Z,97442.47
2022-09-28T12:06:14.169Z,97434.94
2022-09-28T12:07:20.914Z,97440.31
2022-09-28T12:08:41.413Z,97436.25
2022-09-28T12:10:13.134Z,97431.16
2022-09-28T12:11:14.533Z,97433.06
2022-09-28T12:12:47.914Z,97423.09
2022-09-28T12:13:50.974Z,97430.28
2022-09-28T12:14:55.439Z,97423.97
2022-09-28T12:17:28.777Z,97415.22
2022-09-28T12:18:36.354Z,97416.09
2022-09-28T12:20:03.929Z,97414.88
2022-09-28T12:21:28.451Z,97409.63
2022-09-28T12:22:37.914Z,97413.69
2022-09-28T12:23:41.884Z,97420.19
2022-09-28T12:24:45.584Z,97417.34
2022-09-28T12:25:49.562Z,97413.50
2022-09-28T12:26:56.763Z,97408.53
2022-09-28T12:28:00.341Z,97413.22
2022-09-28T12:29:04.012Z,97414.84
2022-09-28T12:30:16.558Z,97412.03
2022-09-28T12:31:21.388Z,97414.09
2022-09-28T12:32:41.332Z,97409.63
2022-09-28T12:33:45.808Z,97411.28
2022-09-28T12:34:47.192Z,97402.91
2022-09-28T12:36:06.926Z,97403.13
2022-09-28T12:37:15.783Z,97402.34
2022-09-28T12:38:26.148Z,97412.56
2022-09-28T12:39:46.710Z,97406.16
2022-09-28T12:41:00.808Z,97411.28
2022-09-28T12:42:21.945Z,97413.56
2022-09-28T12:43:44.307Z,97408.66
2022-09-28T12:44:48.555Z,97410.75
2022-09-28T12:46:28.527Z,97410.75
2022-09-28T12:47:39.760Z,97405.66
2022-09-28T12:49:04.105Z,97407.06
2022-09-28T12:50:38.646Z,97413.84
2022-09-28T12:51:51.728Z,97407.09
2022-09-28T12:53:05.088Z,97407.94
2022-09-28T12:54:06.432Z,97407.53
2022-09-28T12:55:26.402Z,97412.22
2022-09-28T12:56:46.389Z,97405.91
2022-09-28T12:57:59.450Z,97409.59
2022-09-28T12:59:09.039Z,97409.78
2022-09-28T13:00:15.570Z,97408.81
2022-09-28T13:01:25.982Z,97409.84
2022-09-28T13:02:36.006Z,97411.28
2022-09-28T13:03:53.857Z,97405.75
2022-09-28T13:05:15.245Z,97406.78
2022-09-28T13:06:25.871Z,97407.59
2022-09-28T13:07:35.030Z,97399.28
2022-09-28T13:08:42.483Z,97404.75
2022-09-28T13:09:49.721Z,97399.28
2022-09-28T13:11:09.833Z,97393.34
2022-09-28T13:12:19.506Z,97396.22
2022-09-28T13:13:23.822Z,97390.31
2022-09-28T13:14:31.355Z,97400.31
2022-09-28T13:15:37.186Z,97400.91
2022-09-28T13:16:44.148Z,97398.69
2022-09-28T13:18:14.630Z,97392.78
2022-09-28T13:19:22.111Z,97397.88
2022-09-28T13:20:26.510Z,97397.88
2022-09-28T13:21:34.788Z,97394.44
2022-09-28T13:22:44.389Z,97392.38
2022-09-28T13:23:47.200Z,97396.03
2022-09-28T13:24:48.899Z,97385.44
2022-09-28T13:25:59.751Z,97381.38
2022-09-28T13:27:10.297Z,97378.72